createdAt,value
2018-02-13T00:00:10.159Z,3.93
2018-02-13T00:02:37.908Z,3.73
2018-02-13T00:05:05.709Z,3.57
2018-02-13T00:07:33.466Z,3.93
2018-02-13T00:10:01.288Z,4.10
2018-02-13T00:12:52.597Z,4.60
2018-02-13T00:15:20.392Z,4.90
2018-02-13T00:17:48.195Z,4.53
2018-02-13T00:20:15.991Z,4.83
2018-02-13T00:22:50.506Z,4.77
2018-02-13T00:25:18.319Z,5.13
2018-02-13T00:27:46.063Z,4.93
2018-02-13T00:30:13.877Z,4.63
2018-02-13T00:32:41.630Z,5.00
2018-02-13T00:35:09.461Z,5.10
2018-02-13T00:37:37.278Z,5.20
2018-02-13T00:40:05.050Z,5.30
2018-02-13T00:42:32.864Z,6.20
2018-02-13T00:45:00.643Z,6.03
2018-02-13T00:47:28.523Z,5.80
2018-02-13T00:49:56.373Z,7.00
2018-02-13T00:52:24.193Z,5.70
2018-02-13T00:54:51.974Z,6.07
2018-02-13T00:57:19.744Z,7.13
2018-02-13T00:59:47.530Z,6.53
2018-02-13T01:02:15.364Z,6.77
2018-02-13T01:04:43.139Z,7.40
2018-02-13T01:07:10.964Z,6.90
2018-02-13T01:09:38.751Z,6.10
2018-02-13T01:12:06.491Z,6.30
2018-02-13T01:14:34.328Z,6.10
2018-02-13T01:17:02.080Z,7.10
2018-02-13T01:19:29.861Z,7.07
2018-02-13T01:21:57.598Z,6.77
2018-02-13T01:24:25.391Z,7.47
2018-02-13T01:26:53.163Z,6.80
2018-02-13T01:29:21.047Z,7.37
2018-02-13T01:31:48.843Z,7.03
2018-02-13T01:34:17.381Z,7.03
2018-02-13T01:36:45.133Z,6.57
2018-02-13T01:39:12.917Z,8.10
2018-02-13T01:41:40.659Z,7.63
2018-02-13T01:44:08.440Z,8.37
2018-02-13T01:46:36.298Z,7.90
2018-02-13T01:49:04.114Z,7.73
2018-02-13T01:51:31.846Z,7.00
2018-02-13T01:53:59.678Z,8.50
2018-02-13T01:56:27.421Z,8.00
2018-02-13T01:58:55.260Z,7.60
2018-02-13T02:01:22.995Z,8.17
2018-02-13T02:03:50.734Z,8.30
2018-02-13T02:06:18.522Z,8.40
2018-02-13T02:08:46.262Z,9.00
2018-02-13T02:11:14.124Z,8.43
2018-02-13T02:13:41.886Z,8.10
2018-02-13T02:16:09.709Z,8.47
2018-02-13T02:18:37.509Z,9.10
2018-02-13T02:21:05.296Z,8.47
2018-02-13T02:23:33.078Z,8.47
2018-02-13T02:26:00.883Z,7.57
2018-02-13T02:28:28.617Z,9.50
2018-02-13T02:30:56.465Z,8.17
2018-02-13T02:33:24.235Z,8.63
2018-02-13T02:35:52.085Z,9.07
2018-02-13T02:38:19.857Z,9.40
2018-02-13T02:40:47.643Z,8.90
2018-02-13T02:43:15.460Z,8.63
2018-02-13T02:45:43.250Z,9.50
2018-02-13T02:48:11.001Z,9.10
2018-02-13T02:50:38.851Z,8.10
2018-02-13T02:53:06.590Z,9.17
2018-02-13T02:55:34.445Z,8.03
2018-02-13T02:58:02.251Z,8.97
2018-02-13T03:00:30.085Z,8.80
2018-02-13T03:02:57.831Z,9.20
2018-02-13T03:05:25.613Z,8.33
2018-02-13T03:07:53.355Z,9.73
2018-02-13T03:10:21.148Z,9.30
2018-02-13T03:12:48.926Z,8.77
2018-02-13T03:15:16.783Z,9.87
2018-02-13T03:17:44.570Z,9.50
2018-02-13T03:20:12.382Z,9.43
2018-02-13T03:22:40.144Z,8.60
2018-02-13T03:25:07.938Z,9.10
2018-02-13T03:27:35.791Z,9.27
2018-02-13T03:30:03.598Z,10.33
2018-02-13T03:32:31.356Z,9.20
2018-02-13T03:34:59.165Z,9.67
2018-02-13T03:37:26.936Z,9.60
2018-02-13T03:39:54.766Z,10.70
2018-02-13T03:42:22.507Z,10.10
2018-02-13T03:44:50.307Z,9.70
2018-02-13T03:47:18.149Z,10.70
2018-02-13T03:49:45.967Z,10.30
2018-02-13T03:52:13.821Z,10.17
2018-02-13T03:54:41.578Z,11.33
2018-02-13T03:57:09.371Z,10.33
2018-02-13T03:59:37.123Z,11.20
2018-02-13T04:02:04.914Z,10.47
2018-02-13T04:04:32.660Z,10.63
2018-02-13T04:07:00.489Z,10.30
2018-02-13T04:09:28.292Z,11.50
2018-02-13T04:11:56.091Z,11.30
2018-02-13T04:14:23.843Z,11.57
2018-02-13T04:16:51.652Z,12.30
2018-02-13T04:19:19.417Z,10.83
2018-02-13T04:21:47.212Z,11.07
2018-02-13T04:24:15.011Z,11.73
2018-02-13T04:26:43.645Z,11.93
2018-02-13T04:29:11.461Z,11.30
2018-02-13T04:31:39.323Z,11.97
2018-02-13T04:34:07.082Z,12.87
2018-02-13T04:36:34.921Z,12.17
2018-02-13T04:39:02.666Z,11.97
2018-02-13T04:41:30.472Z,11.57
2018-02-13T04:43:58.229Z,12.63
2018-02-13T04:46:26.055Z,12.20
2018-02-13T04:48:53.806Z,11.83
2018-02-13T04:51:21.608Z,12.83
2018-02-13T04:53:49.426Z,12.60
2018-02-13T04:56:17.203Z,11.90
2018-02-13T04:58:44.953Z,11.80
2018-02-13T05:01:12.797Z,12.30
2018-02-13T05:03:40.618Z,11.00
2018-02-13T05:06:08.425Z,12.20
2018-02-13T05:08:36.294Z,11.80
2018-02-13T05:11:04.147Z,11.63
2018-02-13T05:13:31.945Z,11.43
2018-02-13T05:15:59.754Z,11.67
2018-02-13T05:18:27.548Z,11.77
2018-02-13T05:20:55.375Z,12.37
2018-02-13T05:23:23.150Z,12.10
2018-02-13T05:25:50.971Z,12.20
2018-02-13T05:28:18.869Z,12.80
2018-02-13T05:30:46.661Z,12.70
2018-02-13T05:33:14.548Z,12.87
2018-02-13T05:35:42.337Z,13.47
2018-02-13T05:38:10.758Z,13.37
2018-02-13T05:40:38.552Z,13.60
2018-02-13T05:43:24.798Z,13.80
2018-02-13T05:45:52.641Z,13.10
2018-02-13T05:48:20.477Z,13.10
2018-02-13T05:50:48.315Z,12.70
2018-02-13T05:53:16.139Z,13.03
2018-02-13T05:55:44.006Z,13.20
2018-02-13T05:58:11.822Z,13.00
2018-02-13T06:00:39.631Z,13.77
2018-02-13T06:03:07.456Z,12.67
2018-02-13T06:05:35.327Z,14.40
2018-02-13T06:08:03.162Z,13.93
2018-02-13T06:10:30.987Z,14.57
2018-02-13T06:12:58.854Z,14.60
2018-02-13T06:15:26.668Z,15.03
2018-02-13T06:17:54.515Z,15.43
2018-02-13T06:20:22.383Z,14.50
2018-02-13T06:22:50.288Z,15.27
2018-02-13T06:25:18.148Z,16.17
2018-02-13T06:27:46.023Z,14.50
2018-02-13T06:30:13.836Z,15.60
2018-02-13T06:32:41.754Z,15.83
2018-02-13T06:35:09.575Z,14.00
2018-02-13T06:37:37.550Z,15.33
2018-02-13T06:40:05.344Z,16.80
2018-02-13T06:42:33.312Z,14.60
2018-02-13T06:45:01.203Z,15.37
2018-02-13T06:47:29.156Z,16.43
2018-02-13T06:49:57.009Z,16.77
2018-02-13T06:52:24.919Z,15.73
2018-02-13T06:54:52.769Z,15.57
2018-02-13T06:57:20.612Z,17.00
2018-02-13T06:59:48.548Z,15.80
2018-02-13T07:02:16.432Z,16.60
2018-02-13T07:04:44.283Z,16.97
2018-02-13T07:07:12.194Z,17.67
2018-02-13T07:09:40.072Z,16.00
2018-02-13T07:12:07.999Z,16.77
2018-02-13T07:14:35.812Z,17.30
2018-02-13T07:17:03.747Z,17.17
2018-02-13T07:19:31.595Z,17.30
2018-02-13T07:21:59.446Z,17.20
2018-02-13T07:24:27.260Z,17.37
2018-02-13T07:26:55.160Z,17.53
2018-02-13T07:29:23.031Z,17.10
2018-02-13T07:31:50.879Z,19.27
2018-02-13T07:34:18.703Z,16.53
2018-02-13T07:36:46.580Z,18.20
2018-02-13T07:39:14.523Z,17.93
2018-02-13T07:41:42.376Z,18.20
2018-02-13T07:44:10.203Z,17.80
2018-02-13T07:46:38.021Z,18.57
2018-02-13T07:49:05.911Z,18.10
2018-02-13T07:51:33.775Z,18.20
2018-02-13T07:54:01.712Z,17.30
2018-02-13T07:56:29.541Z,17.10
2018-02-13T07:58:57.384Z,17.60
2018-02-13T08:01:25.308Z,17.93
2018-02-13T08:03:53.227Z,17.30
2018-02-13T08:06:21.017Z,18.90
2018-02-13T08:08:48.957Z,17.40
2018-02-13T08:11:16.818Z,18.20
2018-02-13T08:13:44.734Z,18.50
2018-02-13T08:16:13.441Z,19.07
2018-02-13T08:18:41.297Z,18.40
2018-02-13T08:21:09.256Z,18.40
2018-02-13T08:23:37.125Z,19.17
2018-02-13T08:26:04.908Z,17.73
2018-02-13T08:28:32.736Z,17.67
2018-02-13T08:31:00.626Z,18.27
2018-02-13T08:33:28.544Z,18.00
2018-02-13T08:35:56.447Z,18.30
2018-02-13T08:38:24.355Z,18.73
2018-02-13T08:40:52.259Z,18.80
2018-02-13T08:43:20.199Z,17.50
2018-02-13T08:45:49.611Z,17.83
2018-02-13T08:48:17.706Z,17.87
2018-02-13T08:50:45.564Z,16.50
2018-02-13T08:53:13.529Z,17.70
2018-02-13T08:55:41.413Z,18.17
2018-02-13T08:58:09.356Z,18.77
2018-02-13T09:00:37.300Z,16.77
2018-02-13T09:03:05.156Z,17.90
2018-02-13T09:05:33.117Z,17.27
2018-02-13T09:08:01.136Z,18.20
2018-02-13T09:10:28.940Z,18.20
2018-02-13T09:12:56.852Z,16.40
2018-02-13T09:15:24.806Z,17.83
2018-02-13T09:17:52.703Z,17.10
2018-02-13T09:20:20.612Z,16.83
2018-02-13T09:22:48.395Z,16.63
2018-02-13T09:25:16.227Z,17.50
2018-02-13T09:27:44.096Z,17.03
2018-02-13T09:30:11.952Z,16.97
2018-02-13T09:32:39.771Z,17.27
2018-02-13T09:35:07.679Z,17.33
2018-02-13T09:37:35.568Z,16.87
2018-02-13T09:40:03.474Z,18.27
2018-02-13T09:42:31.350Z,16.97
2018-02-13T09:44:59.236Z,17.00
2018-02-13T09:47:27.132Z,16.60
2018-02-13T09:49:55.038Z,16.00
2018-02-13T09:52:22.940Z,16.60
2018-02-13T09:54:50.829Z,17.40
2018-02-13T09:57:18.697Z,16.07
2018-02-13T09:59:46.556Z,16.47
2018-02-13T10:02:14.416Z,16.30
2018-02-13T10:04:42.436Z,14.80
2018-02-13T10:07:10.307Z,15.23
2018-02-13T10:09:38.236Z,16.80
2018-02-13T10:12:06.083Z,16.93
2018-02-13T10:14:34.020Z,16.83
2018-02-13T10:17:01.912Z,13.90
2018-02-13T10:19:29.826Z,17.13
2018-02-13T10:21:57.750Z,16.87
2018-02-13T10:24:25.703Z,16.53
2018-02-13T10:26:53.539Z,15.20
2018-02-13T10:29:21.458Z,16.60
2018-02-13T10:31:49.331Z,16.63
2018-02-13T10:34:17.231Z,15.57
2018-02-13T10:36:45.087Z,15.57
2018-02-13T10:39:12.984Z,16.17
2018-02-13T10:41:41.873Z,14.80
2018-02-13T10:44:09.754Z,15.53
2018-02-13T10:46:38.565Z,13.80
2018-02-13T10:49:06.429Z,15.43
2018-02-13T10:51:34.316Z,15.97
2018-02-13T10:54:02.198Z,15.70
2018-02-13T10:56:30.029Z,14.73
2018-02-13T10:58:57.959Z,12.83
2018-02-13T11:01:31.389Z,13.70
2018-02-13T11:03:59.153Z,14.30
2018-02-13T11:06:33.849Z,12.93
2018-02-13T11:09:04.805Z,13.63
2018-02-13T11:11:32.796Z,14.70
2018-02-13T11:14:00.638Z,14.30
2018-02-13T11:16:28.615Z,12.13
2018-02-13T11:18:56.521Z,12.40
2018-02-13T11:21:24.492Z,13.90
2018-02-13T11:23:52.358Z,11.57
2018-02-13T11:26:20.323Z,12.23
2018-02-13T11:28:48.133Z,11.77
2018-02-13T11:31:16.047Z,11.10
2018-02-13T11:33:43.889Z,11.00
2018-02-13T11:36:11.696Z,11.30
2018-02-13T11:38:39.585Z,11.60
2018-02-13T11:41:07.424Z,11.50
2018-02-13T11:43:35.308Z,11.23
2018-02-13T11:46:03.238Z,11.77
2018-02-13T11:48:31.155Z,11.07
2018-02-13T11:50:59.064Z,11.27
2018-02-13T11:53:26.991Z,11.70
2018-02-13T11:55:54.879Z,10.60
2018-02-13T11:58:22.808Z,11.10
2018-02-13T12:00:50.682Z,9.87
2018-02-13T12:03:18.528Z,10.50
2018-02-13T12:05:46.399Z,10.33
2018-02-13T12:08:14.215Z,10.57
2018-02-13T12:10:42.064Z,11.27
2018-02-13T12:13:09.844Z,10.33
2018-02-13T12:15:37.750Z,10.70
2018-02-13T12:18:05.534Z,11.03
2018-02-13T12:20:33.374Z,9.63
2018-02-13T12:23:01.247Z,10.57
2018-02-13T12:25:40.946Z,10.03
2018-02-13T12:28:08.851Z,9.90
2018-02-13T12:30:36.681Z,10.07
2018-02-13T12:33:04.502Z,9.03
2018-02-13T12:35:32.292Z,10.27
2018-02-13T12:38:00.080Z,9.30
2018-02-13T12:40:27.959Z,9.00
2018-02-13T12:42:55.814Z,9.03
2018-02-13T12:45:23.658Z,8.43
2018-02-13T12:47:51.578Z,8.53
2018-02-13T12:50:19.339Z,8.33
2018-02-13T12:52:47.214Z,8.80
2018-02-13T12:55:15.136Z,8.97
2018-02-13T12:57:43.093Z,8.57
2018-02-13T13:00:10.938Z,8.50
2018-02-13T13:02:38.814Z,7.90
2018-02-13T13:05:06.694Z,8.97
2018-02-13T13:07:34.511Z,8.70
2018-02-13T13:10:02.301Z,8.50
2018-02-13T13:12:30.174Z,9.00
2018-02-13T13:14:58.051Z,9.20
2018-02-13T13:17:26.028Z,7.80
2018-02-13T13:19:53.985Z,7.23
2018-02-13T13:22:21.807Z,7.63
2018-02-13T13:24:49.701Z,8.63
2018-02-13T13:27:17.507Z,7.90
2018-02-13T13:29:45.377Z,7.40
2018-02-13T13:32:13.247Z,8.17
2018-02-13T13:34:41.072Z,7.40
2018-02-13T13:37:08.952Z,6.80
2018-02-13T13:39:36.820Z,7.00
2018-02-13T13:42:04.712Z,7.40
2018-02-13T13:44:32.615Z,7.17
2018-02-13T13:47:00.472Z,6.50
2018-02-13T13:49:28.318Z,7.80
2018-02-13T13:51:56.164Z,7.00
2018-02-13T13:54:23.991Z,6.50
2018-02-13T13:56:51.825Z,6.07
2018-02-13T13:59:19.598Z,6.37
2018-02-13T14:01:47.536Z,6.00
2018-02-13T14:04:15.420Z,6.40
2018-02-13T14:06:43.738Z,6.83
2018-02-13T14:09:11.639Z,6.47
2018-02-13T14:11:39.526Z,6.50
2018-02-13T14:14:07.465Z,6.40
2018-02-13T14:16:35.519Z,6.63
2018-02-13T14:19:03.953Z,6.57
2018-02-13T14:21:31.909Z,6.37
2018-02-13T14:23:59.823Z,6.80
2018-02-13T14:26:27.719Z,6.20
2018-02-13T14:28:55.736Z,6.20
2018-02-13T14:31:23.571Z,5.60
2018-02-13T14:33:51.481Z,6.10
2018-02-13T14:36:19.377Z,5.50
2018-02-13T14:38:47.312Z,5.70
2018-02-13T14:41:15.126Z,6.17
2018-02-13T14:43:43.026Z,5.53
2018-02-13T14:46:10.845Z,6.00
2018-02-13T14:48:38.802Z,5.83
2018-02-13T14:51:06.606Z,5.80
2018-02-13T14:53:34.523Z,5.83
2018-02-13T14:56:02.357Z,5.70
2018-02-13T14:58:30.224Z,5.20
2018-02-13T15:00:58.013Z,5.97
2018-02-13T15:03:25.845Z,5.83
2018-02-13T15:05:53.698Z,6.10
2018-02-13T15:08:21.575Z,5.50
2018-02-13T15:10:49.440Z,6.17
2018-02-13T15:13:17.406Z,6.23
2018-02-13T15:15:45.633Z,5.97
2018-02-13T15:18:14.356Z,6.20
2018-02-13T15:20:42.926Z,5.80
2018-02-13T15:23:11.735Z,6.30
2018-02-13T15:25:39.827Z,6.47
2018-02-13T15:28:08.282Z,6.07
2018-02-13T15:30:36.384Z,6.80
2018-02-13T15:33:04.593Z,7.10
2018-02-13T15:35:32.543Z,6.93
2018-02-13T15:38:01.776Z,7.63
2018-02-13T15:40:30.954Z,7.23
2018-02-13T15:42:59.122Z,7.40
2018-02-13T15:45:26.923Z,7.47
2018-02-13T15:47:54.826Z,7.47
2018-02-13T15:50:22.729Z,8.60
2018-02-13T15:52:50.580Z,8.03
2018-02-13T15:55:18.368Z,7.10
2018-02-13T15:57:46.161Z,8.00
2018-02-13T16:00:13.994Z,8.20
2018-02-13T16:02:41.821Z,8.40
2018-02-13T16:05:09.588Z,9.00
2018-02-13T16:07:37.352Z,8.47
2018-02-13T16:10:05.280Z,9.00
2018-02-13T16:12:33.150Z,8.33
2018-02-13T16:15:01.002Z,8.80
2018-02-13T16:17:28.816Z,8.77
2018-02-13T16:19:56.696Z,9.50
2018-02-13T16:22:24.534Z,9.60
2018-02-13T16:24:52.429Z,9.13
2018-02-13T16:27:20.297Z,18.40
2018-02-13T16:29:48.201Z,10.57
2018-02-13T16:32:16.033Z,14.93
2018-02-13T16:34:43.952Z,9.63
2018-02-13T16:37:11.760Z,10.13
2018-02-13T16:39:39.688Z,10.20
2018-02-13T16:42:07.528Z,8.50
2018-02-13T16:44:35.455Z,8.20
2018-02-13T16:47:03.378Z,8.80
2018-02-13T16:49:31.290Z,8.03
2018-02-13T16:51:59.132Z,7.63
2018-02-13T16:54:27.033Z,7.33
2018-02-13T16:56:54.915Z,6.80
2018-02-13T16:59:22.795Z,7.40
2018-02-13T17:01:50.612Z,6.70
2018-02-13T17:04:18.452Z,7.17
2018-02-13T17:06:46.248Z,6.50
2018-02-13T17:09:14.194Z,7.40
2018-02-13T17:11:42.000Z,7.50
2018-02-13T17:14:09.829Z,7.60
2018-02-13T17:16:37.604Z,8.17
2018-02-13T17:19:05.584Z,8.30
2018-02-13T17:21:33.372Z,8.07
2018-02-13T17:24:01.177Z,7.90
2018-02-13T17:26:29.001Z,7.10
2018-02-13T17:28:56.806Z,6.93
2018-02-13T17:31:24.639Z,7.60
2018-02-13T17:33:52.413Z,7.10
2018-02-13T17:36:20.138Z,7.23
2018-02-13T17:38:47.937Z,7.77
2018-02-13T17:41:15.750Z,7.07
2018-02-13T17:43:43.582Z,6.90
2018-02-13T17:46:11.323Z,6.70
2018-02-13T17:48:39.172Z,6.70
2018-02-13T17:51:06.981Z,7.10
2018-02-13T17:53:34.778Z,7.20
2018-02-13T17:56:02.844Z,7.00
2018-02-13T17:58:31.166Z,7.87
2018-02-13T18:00:59.382Z,6.70
2018-02-13T18:03:27.507Z,7.53
2018-02-13T18:05:55.827Z,6.70
2018-02-13T18:08:24.193Z,7.77
2018-02-13T18:10:52.343Z,7.80
2018-02-13T18:13:20.992Z,6.47
2018-02-13T18:15:49.183Z,7.27
2018-02-13T18:18:17.174Z,6.90
2018-02-13T18:20:45.707Z,7.83
2018-02-13T18:23:13.786Z,6.80
2018-02-13T18:25:41.618Z,7.77
2018-02-13T18:28:09.424Z,7.10
2018-02-13T18:30:37.272Z,7.07
2018-02-13T18:33:05.016Z,6.93
2018-02-13T18:35:32.895Z,6.40
2018-02-13T18:38:00.692Z,6.50
2018-02-13T18:40:28.555Z,7.40
2018-02-13T18:42:56.426Z,7.77
2018-02-13T18:45:24.339Z,7.37
2018-02-13T18:47:52.132Z,10.60
2018-02-13T18:50:19.966Z,8.10
2018-02-13T18:55:15.594Z,7.10
2018-02-13T18:57:43.380Z,7.77
2018-02-13T19:00:11.252Z,7.37
2018-02-13T19:02:38.968Z,6.93
2018-02-13T19:05:06.775Z,8.40
2018-02-13T19:07:34.549Z,7.30
2018-02-13T19:10:02.355Z,6.93
2018-02-13T19:12:30.130Z,7.60
2018-02-13T19:14:58.010Z,6.80
2018-02-13T19:17:25.796Z,7.07
2018-02-13T19:19:53.622Z,6.60
2018-02-13T19:22:21.431Z,6.83
2018-02-13T19:24:52.069Z,6.87
2018-02-13T19:27:19.843Z,7.10
2018-02-13T19:29:47.680Z,6.67
2018-02-13T19:32:15.470Z,7.47
2018-02-13T19:34:43.296Z,8.17
2018-02-13T19:37:11.091Z,7.07
2018-02-13T19:39:38.989Z,8.30
2018-02-13T19:42:06.911Z,7.70
2018-02-13T19:44:34.676Z,7.43
2018-02-13T19:47:02.627Z,6.37
2018-02-13T19:49:30.440Z,7.33
2018-02-13T19:51:58.308Z,7.10
2018-02-13T19:54:26.132Z,6.90
2018-02-13T19:56:53.992Z,7.00
2018-02-13T19:59:21.792Z,6.80
2018-02-13T20:01:49.713Z,6.77
2018-02-13T20:04:17.581Z,6.70
2018-02-13T20:06:45.442Z,6.50
2018-02-13T20:09:13.281Z,7.27
2018-02-13T20:11:41.119Z,7.13
2018-02-13T20:14:08.915Z,6.90
2018-02-13T20:16:36.760Z,6.90
2018-02-13T20:19:04.535Z,6.87
2018-02-13T20:21:32.363Z,7.20
2018-02-13T20:24:00.133Z,7.60
2018-02-13T20:26:28.139Z,7.13
2018-02-13T20:28:55.963Z,7.40
2018-02-13T20:31:23.796Z,7.10
2018-02-13T20:33:51.577Z,7.20
2018-02-13T20:36:19.480Z,7.10
2018-02-13T20:38:47.270Z,7.10
2018-02-13T20:41:15.146Z,6.93
2018-02-13T20:43:42.990Z,7.40
2018-02-13T20:46:10.863Z,8.23
2018-02-13T20:48:38.711Z,8.03
2018-02-13T20:51:06.613Z,7.83
2018-02-13T20:53:34.431Z,9.37
2018-02-13T20:56:02.297Z,8.77
2018-02-13T20:58:30.139Z,9.33
2018-02-13T21:00:57.968Z,8.67
2018-02-13T21:03:25.729Z,8.20
2018-02-13T21:05:53.578Z,8.67
2018-02-13T21:08:21.374Z,7.70
2018-02-13T21:10:49.193Z,7.57
2018-02-13T21:13:16.984Z,7.77
2018-02-13T21:15:44.847Z,7.47
2018-02-13T21:18:12.639Z,7.00
2018-02-13T21:20:40.508Z,6.70
2018-02-13T21:23:08.352Z,7.57
2018-02-13T21:25:36.159Z,6.63
2018-02-13T21:28:04.020Z,6.63
2018-02-13T21:30:31.873Z,7.87
2018-02-13T21:32:59.692Z,7.53
2018-02-13T21:35:27.461Z,6.80
2018-02-13T21:37:55.309Z,7.13
2018-02-13T21:40:23.156Z,7.10
2018-02-13T21:42:51.068Z,7.10
2018-02-13T21:45:18.844Z,7.40
2018-02-13T21:47:46.655Z,7.43
2018-02-13T21:50:14.468Z,6.83
2018-02-13T21:52:42.298Z,6.73
2018-02-13T21:55:10.205Z,7.37
2018-02-13T21:57:38.068Z,9.30
2018-02-13T22:00:05.967Z,10.40
2018-02-13T22:02:33.850Z,9.10
2018-02-13T22:05:01.708Z,9.00
2018-02-13T22:07:29.548Z,9.20
2018-02-13T22:09:57.400Z,10.20
2018-02-13T22:12:25.268Z,11.10
2018-02-13T22:14:53.087Z,9.07
2018-02-13T22:17:20.947Z,9.70
2018-02-13T22:19:48.805Z,10.17
2018-02-13T22:22:16.589Z,10.17
2018-02-13T22:24:44.341Z,9.30
2018-02-13T22:27:12.324Z,9.23
2018-02-13T22:29:40.104Z,9.20
2018-02-13T22:32:07.935Z,9.00
2018-02-13T22:34:35.741Z,8.40
2018-02-13T22:37:03.587Z,8.27
2018-02-13T22:39:31.536Z,8.33
2018-02-13T22:41:59.408Z,8.13
2018-02-13T22:44:27.281Z,9.93
2018-02-13T22:46:55.127Z,9.17
2018-02-13T22:49:22.936Z,8.43
2018-02-13T22:51:50.756Z,9.10
2018-02-13T22:54:18.593Z,8.63
2018-02-13T22:56:46.446Z,8.90
2018-02-13T22:59:14.296Z,9.23
2018-02-13T23:01:42.149Z,9.13
2018-02-13T23:04:09.968Z,9.00
2018-02-13T23:06:37.778Z,8.10
2018-02-13T23:09:05.579Z,7.70
2018-02-13T23:11:33.332Z,7.47
2018-02-13T23:14:01.131Z,7.43
2018-02-13T23:16:28.886Z,8.47
2018-02-13T23:18:56.782Z,8.13
2018-02-13T23:21:24.535Z,8.00
2018-02-13T23:23:52.365Z,8.07
2018-02-13T23:26:20.137Z,8.27
2018-02-13T23:28:47.967Z,7.83
2018-02-13T23:31:15.749Z,7.03
2018-02-13T23:33:43.547Z,8.37
2018-02-13T23:36:11.291Z,8.70
2018-02-13T23:38:39.144Z,7.70
2018-02-13T23:41:06.890Z,7.60
2018-02-13T23:43:34.732Z,8.00
2018-02-13T23:46:02.508Z,8.00
2018-02-13T23:48:30.497Z,9.00
2018-02-13T23:50:58.257Z,8.37
2018-02-13T23:53:26.051Z,8.20
2018-02-13T23:55:53.895Z,7.03
2018-02-13T23:58:21.724Z,7.17
